sensor_id;sensor_type;location;lat;lon;timestamp;P1;durP1;ratioP1;P2;durP2;ratioP2
54745;SDS011;40640;48.130;11.356;2022-10-17T00:00:24;2.20;;;2.00;;
54745;SDS011;40640;48.130;11.356;2022-10-17T00:04:27;4.45;;;2.45;;
54745;SDS011;40640;48.130;11.356;2022-10-17T00:08:31;4.53;;;2.00;;
54745;SDS011;40640;48.130;11.356;2022-10-17T00:12:34;5.53;;;2.15;;
54745;SDS011;40640;48.130;11.356;2022-10-17T00:16:36;4.30;;;2.50;;
54745;SDS011;40640;48.130;11.356;2022-10-17T00:20:39;4.03;;;2.17;;
54745;SDS011;40640;48.130;11.356;2022-10-17T00:24:43;4.47;;;2.20;;
54745;SDS011;40640;48.130;11.356;2022-10-17T00:28:46;4.95;;;2.10;;
54745;SDS011;40640;48.130;11.356;2022-10-17T00:32:49;3.88;;;1.83;;
54745;SDS011;40640;48.130;11.356;2022-10-17T00:36:52;11.85;;;2.20;;
54745;SDS011;40640;48.130;11.356;2022-10-17T00:40:56;3.60;;;2.25;;
54745;SDS011;40640;48.130;11.356;2022-10-17T00:45:02;12.40;;;2.85;;
54745;SDS011;40640;48.130;11.356;2022-10-17T00:49:09;5.15;;;3.53;;
54745;SDS011;40640;48.130;11.356;2022-10-17T00:53:13;3.75;;;1.95;;
54745;SDS011;40640;48.130;11.356;2022-10-17T00:57:18;2.55;;;1.98;;
54745;SDS011;40640;48.130;11.356;2022-10-17T01:01:21;2.30;;;2.00;;
54745;SDS011;40640;48.130;11.356;2022-10-17T01:05:23;5.22;;;2.13;;
54745;SDS011;40640;48.130;11.356;2022-10-17T01:09:26;6.75;;;2.15;;
54745;SDS011;40640;48.130;11.356;2022-10-17T01:13:32;5.88;;;2.10;;
54745;SDS011;40640;48.130;11.356;2022-10-17T01:17:41;6.45;;;2.22;;
54745;SDS011;40640;48.130;11.356;2022-10-17T01:21:55;2.93;;;2.17;;
54745;SDS011;40640;48.130;11.356;2022-10-17T01:26:03;5.65;;;2.08;;
54745;SDS011;40640;48.130;11.356;2022-10-17T01:34:58;3.25;;;2.28;;
54745;SDS011;40640;48.130;11.356;2022-10-17T01:39:07;3.25;;;2.38;;
54745;SDS011;40640;48.130;11.356;2022-10-17T01:43:17;3.20;;;2.10;;
54745;SDS011;40640;48.130;11.356;2022-10-17T01:47:25;4.18;;;2.20;;
54745;SDS011;40640;48.130;11.356;2022-10-17T01:51:36;2.90;;;2.20;;
54745;SDS011;40640;48.130;11.356;2022-10-17T01:55:43;2.40;;;1.88;;
54745;SDS011;40640;48.130;11.356;2022-10-17T01:59:47;2.58;;;1.90;;
54745;SDS011;40640;48.130;11.356;2022-10-17T02:03:55;5.00;;;2.08;;
54745;SDS011;40640;48.130;11.356;2022-10-17T02:08:02;8.88;;;2.17;;
54745;SDS011;40640;48.130;11.356;2022-10-17T02:12:10;7.15;;;2.10;;
54745;SDS011;40640;48.130;11.356;2022-10-17T02:16:29;2.10;;;1.90;;
54745;SDS011;40640;48.130;11.356;2022-10-17T02:20:39;6.07;;;2.90;;
54745;SDS011;40640;48.130;11.356;2022-10-17T02:24:51;9.60;;;2.20;;
54745;SDS011;40640;48.130;11.356;2022-10-17T02:29:02;10.25;;;3.97;;
54745;SDS011;40640;48.130;11.356;2022-10-17T02:33:11;12.48;;;2.28;;
54745;SDS011;40640;48.130;11.356;2022-10-17T02:37:18;6.10;;;2.28;;
54745;SDS011;40640;48.130;11.356;2022-10-17T02:41:27;5.05;;;2.75;;
54745;SDS011;40640;48.130;11.356;2022-10-17T02:49:38;3.95;;;2.10;;
54745;SDS011;40640;48.130;11.356;2022-10-17T02:53:48;5.80;;;2.35;;
54745;SDS011;40640;48.130;11.356;2022-10-17T02:57:59;3.63;;;2.28;;
54745;SDS011;40640;48.130;11.356;2022-10-17T03:02:05;10.73;;;2.50;;
54745;SDS011;40640;48.130;11.356;2022-10-17T03:06:08;6.68;;;2.58;;
54745;SDS011;40640;48.130;11.356;2022-10-17T03:10:12;5.53;;;2.55;;
54745;SDS011;40640;48.130;11.356;2022-10-17T03:14:16;3.22;;;2.05;;
54745;SDS011;40640;48.130;11.356;2022-10-17T03:18:20;5.50;;;2.22;;
54745;SDS011;40640;48.130;11.356;2022-10-17T03:22:26;9.40;;;2.20;;
54745;SDS011;40640;48.130;11.356;2022-10-17T03:26:30;4.10;;;2.35;;
54745;SDS011;40640;48.130;11.356;2022-10-17T03:30:37;8.35;;;2.38;;
54745;SDS011;40640;48.130;11.356;2022-10-17T03:34:40;6.07;;;2.28;;
54745;SDS011;40640;48.130;11.356;2022-10-17T03:38:44;5.88;;;2.03;;
54745;SDS011;40640;48.130;11.356;2022-10-17T03:42:49;7.40;;;2.73;;
54745;SDS011;40640;48.130;11.356;2022-10-17T03:46:53;3.63;;;2.17;;
54745;SDS011;40640;48.130;11.356;2022-10-17T03:50:57;7.40;;;2.30;;
54745;SDS011;40640;48.130;11.356;2022-10-17T03:55:02;11.50;;;2.47;;
54745;SDS011;40640;48.130;11.356;2022-10-17T03:59:05;3.78;;;2.50;;
54745;SDS011;40640;48.130;11.356;2022-10-17T04:03:13;5.03;;;2.92;;
54745;SDS011;40640;48.130;11.356;2022-10-17T04:07:17;9.30;;;4.00;;
54745;SDS011;40640;48.130;11.356;2022-10-17T04:11:22;5.85;;;2.90;;
54745;SDS011;40640;48.130;11.356;2022-10-17T04:15:26;3.75;;;2.60;;
54745;SDS011;40640;48.130;11.356;2022-10-17T04:19:31;10.00;;;2.92;;
54745;SDS011;40640;48.130;11.356;2022-10-17T04:23:33;4.30;;;2.20;;
54745;SDS011;40640;48.130;11.356;2022-10-17T04:27:47;10.13;;;3.22;;
54745;SDS011;40640;48.130;11.356;2022-10-17T04:31:50;7.45;;;2.50;;
54745;SDS011;40640;48.130;11.356;2022-10-17T04:36:01;7.20;;;2.70;;
54745;SDS011;40640;48.130;11.356;2022-10-17T04:40:06;12.25;;;2.80;;
54745;SDS011;40640;48.130;11.356;2022-10-17T04:44:11;9.07;;;2.97;;
54745;SDS011;40640;48.130;11.356;2022-10-17T04:48:19;7.82;;;2.70;;
54745;SDS011;40640;48.130;11.356;2022-10-17T04:52:24;8.55;;;3.15;;
54745;SDS011;40640;48.130;11.356;2022-10-17T04:56:27;6.75;;;2.78;;
54745;SDS011;40640;48.130;11.356;2022-10-17T05:00:31;4.82;;;2.70;;
54745;SDS011;40640;48.130;11.356;2022-10-17T05:04:39;13.10;;;4.45;;
54745;SDS011;40640;48.130;11.356;2022-10-17T05:08:45;19.52;;;7.00;;
54745;SDS011;40640;48.130;11.356;2022-10-17T05:12:51;10.32;;;4.55;;
54745;SDS011;40640;48.130;11.356;2022-10-17T05:16:57;11.17;;;3.93;;
54745;SDS011;40640;48.130;11.356;2022-10-17T05:21:01;9.32;;;3.42;;
54745;SDS011;40640;48.130;11.356;2022-10-17T05:25:08;7.35;;;3.42;;
54745;SDS011;40640;48.130;11.356;2022-10-17T05:29:11;6.57;;;3.42;;
54745;SDS011;40640;48.130;11.356;2022-10-17T05:33:18;7.10;;;3.92;;
54745;SDS011;40640;48.130;11.356;2022-10-17T05:37:21;9.57;;;3.35;;
54745;SDS011;40640;48.130;11.356;2022-10-17T05:41:29;3.97;;;2.67;;
54745;SDS011;40640;48.130;11.356;2022-10-17T05:45:32;7.18;;;3.20;;
54745;SDS011;40640;48.130;11.356;2022-10-17T05:49:35;6.25;;;2.92;;
54745;SDS011;40640;48.130;11.356;2022-10-17T05:53:51;9.20;;;3.23;;
54745;SDS011;40640;48.130;11.356;2022-10-17T05:57:59;18.80;;;8.52;;
54745;SDS011;40640;48.130;11.356;2022-10-17T06:02:08;11.30;;;5.38;;
54745;SDS011;40640;48.130;11.356;2022-10-17T06:06:13;5.63;;;3.88;;
54745;SDS011;40640;48.130;11.356;2022-10-17T06:10:18;9.10;;;3.87;;
54745;SDS011;40640;48.130;11.356;2022-10-17T06:14:23;6.22;;;3.55;;
54745;SDS011;40640;48.130;11.356;2022-10-17T06:18:30;5.65;;;3.15;;
54745;SDS011;40640;48.130;11.356;2022-10-17T06:22:33;10.23;;;3.88;;
54745;SDS011;40640;48.130;11.356;2022-10-17T06:26:40;9.93;;;3.78;;
54745;SDS011;40640;48.130;11.356;2022-10-17T06:30:47;4.50;;;3.07;;
54745;SDS011;40640;48.130;11.356;2022-10-17T06:34:50;8.88;;;3.67;;
54745;SDS011;40640;48.130;11.356;2022-10-17T06:38:53;6.22;;;3.03;;
54745;SDS011;40640;48.130;11.356;2022-10-17T06:43:02;7.40;;;3.00;;
54745;SDS011;40640;48.130;11.356;2022-10-17T06:47:23;7.63;;;3.05;;
54745;SDS011;40640;48.130;11.356;2022-10-17T06:51:30;5.70;;;3.00;;
54745;SDS011;40640;48.130;11.356;2022-10-17T06:55:36;7.63;;;4.25;;
54745;SDS011;40640;48.130;11.356;2022-10-17T06:59:59;7.45;;;2.95;;
54745;SDS011;40640;48.130;11.356;2022-10-17T07:04:14;6.50;;;3.25;;
54745;SDS011;40640;48.130;11.356;2022-10-17T07:08:17;8.68;;;2.78;;
54745;SDS011;40640;48.130;11.356;2022-10-17T07:12:20;9.13;;;3.15;;
54745;SDS011;40640;48.130;11.356;2022-10-17T07:16:24;6.22;;;3.33;;
54745;SDS011;40640;48.130;11.356;2022-10-17T07:20:39;7.55;;;3.47;;
54745;SDS011;40640;48.130;11.356;2022-10-17T07:24:42;10.05;;;3.63;;
54745;SDS011;40640;48.130;11.356;2022-10-17T07:28:51;7.47;;;3.28;;
54745;SDS011;40640;48.130;11.356;2022-10-17T07:33:25;5.10;;;3.50;;
54745;SDS011;40640;48.130;11.356;2022-10-17T07:37:29;8.93;;;2.90;;
54745;SDS011;40640;48.130;11.356;2022-10-17T07:41:33;21.30;;;5.28;;
54745;SDS011;40640;48.130;11.356;2022-10-17T07:45:39;12.90;;;3.55;;
54745;SDS011;40640;48.130;11.356;2022-10-17T07:49:42;10.57;;;3.17;;
54745;SDS011;40640;48.130;11.356;2022-10-17T07:53:46;10.40;;;3.10;;
54745;SDS011;40640;48.130;11.356;2022-10-17T07:57:49;6.28;;;3.15;;
54745;SDS011;40640;48.130;11.356;2022-10-17T08:01:53;6.82;;;2.85;;
54745;SDS011;40640;48.130;11.356;2022-10-17T08:05:57;8.15;;;2.53;;
54745;SDS011;40640;48.130;11.356;2022-10-17T08:10:01;7.30;;;2.95;;
54745;SDS011;40640;48.130;11.356;2022-10-17T08:14:04;5.30;;;2.72;;
54745;SDS011;40640;48.130;11.356;2022-10-17T08:18:08;11.43;;;2.60;;
54745;SDS011;40640;48.130;11.356;2022-10-17T08:22:10;5.05;;;2.90;;
54745;SDS011;40640;48.130;11.356;2022-10-17T08:26:14;4.82;;;2.58;;
54745;SDS011;40640;48.130;11.356;2022-10-17T08:30:20;3.60;;;2.45;;
54745;SDS011;40640;48.130;11.356;2022-10-17T08:34:22;12.63;;;2.53;;
54745;SDS011;40640;48.130;11.356;2022-10-17T08:38:25;9.23;;;2.25;;
54745;SDS011;40640;48.130;11.356;2022-10-17T08:42:44;3.60;;;1.90;;
54745;SDS011;40640;48.130;11.356;2022-10-17T08:46:56;4.85;;;2.40;;
54745;SDS011;40640;48.130;11.356;2022-10-17T08:51:04;7.90;;;2.53;;
54745;SDS011;40640;48.130;11.356;2022-10-17T08:55:13;7.22;;;2.08;;
54745;SDS011;40640;48.130;11.356;2022-10-17T08:59:19;4.80;;;1.95;;
54745;SDS011;40640;48.130;11.356;2022-10-17T09:03:30;6.28;;;1.90;;
54745;SDS011;40640;48.130;11.356;2022-10-17T09:07:56;3.50;;;2.10;;
54745;SDS011;40640;48.130;11.356;2022-10-17T09:12:11;3.58;;;1.80;;
54745;SDS011;40640;48.130;11.356;2022-10-17T09:16:24;3.53;;;1.88;;
54745;SDS011;40640;48.130;11.356;2022-10-17T09:20:41;4.50;;;2.27;;
54745;SDS011;40640;48.130;11.356;2022-10-17T09:24:48;3.30;;;2.22;;
54745;SDS011;40640;48.130;11.356;2022-10-17T09:28:56;5.07;;;2.45;;
54745;SDS011;40640;48.130;11.356;2022-10-17T09:33:04;2.22;;;1.98;;
54745;SDS011;40640;48.130;11.356;2022-10-17T09:37:32;4.70;;;2.08;;
54745;SDS011;40640;48.130;11.356;2022-10-17T09:41:36;2.78;;;2.58;;
54745;SDS011;40640;48.130;11.356;2022-10-17T09:45:48;5.70;;;2.50;;
54745;SDS011;40640;48.130;11.356;2022-10-17T09:50:04;3.53;;;2.28;;
54745;SDS011;40640;48.130;11.356;2022-10-17T09:54:17;2.28;;;2.17;;
54745;SDS011;40640;48.130;11.356;2022-10-17T09:58:22;5.90;;;2.60;;
54745;SDS011;40640;48.130;11.356;2022-10-17T10:02:25;4.35;;;3.17;;
54745;SDS011;40640;48.130;11.356;2022-10-17T10:06:32;3.75;;;3.00;;
54745;SDS011;40640;48.130;11.356;2022-10-17T10:10:34;6.38;;;3.55;;
54745;SDS011;40640;48.130;11.356;2022-10-17T10:14:37;6.07;;;3.33;;
54745;SDS011;40640;48.130;11.356;2022-10-17T10:18:40;3.95;;;2.90;;
54745;SDS011;40640;48.130;11.356;2022-10-17T10:22:55;4.32;;;3.47;;
54745;SDS011;40640;48.130;11.356;2022-10-17T10:27:10;4.85;;;3.97;;
54745;SDS011;40640;48.130;11.356;2022-10-17T10:31:15;6.18;;;2.90;;
54745;SDS011;40640;48.130;11.356;2022-10-17T10:35:18;6.07;;;3.28;;
54745;SDS011;40640;48.130;11.356;2022-10-17T10:39:29;4.68;;;3.30;;
54745;SDS011;40640;48.130;11.356;2022-10-17T10:43:40;3.70;;;3.50;;
54745;SDS011;40640;48.130;11.356;2022-10-17T10:47:48;4.60;;;3.50;;
54745;SDS011;40640;48.130;11.356;2022-10-17T10:51:52;8.20;;;3.80;;
54745;SDS011;40640;48.130;11.356;2022-10-17T10:55:57;4.43;;;4.03;;
54745;SDS011;40640;48.130;11.356;2022-10-17T11:00:03;4.30;;;4.00;;
54745;SDS011;40640;48.130;11.356;2022-10-17T11:04:17;4.40;;;4.00;;
54745;SDS011;40640;48.130;11.356;2022-10-17T11:08:25;5.05;;;4.05;;
54745;SDS011;40640;48.130;11.356;2022-10-17T11:12:37;4.22;;;3.30;;
54745;SDS011;40640;48.130;11.356;2022-10-17T11:16:48;8.60;;;3.60;;
54745;SDS011;40640;48.130;11.356;2022-10-17T11:20:57;3.65;;;3.45;;
54745;SDS011;40640;48.130;11.356;2022-10-17T11:25:04;6.38;;;3.78;;
54745;SDS011;40640;48.130;11.356;2022-10-17T11:29:16;7.43;;;3.47;;
54745;SDS011;40640;48.130;11.356;2022-10-17T11:33:23;3.85;;;3.47;;
54745;SDS011;40640;48.130;11.356;2022-10-17T11:37:30;4.47;;;3.20;;
54745;SDS011;40640;48.130;11.356;2022-10-17T11:41:36;2.50;;;2.40;;
54745;SDS011;40640;48.130;11.356;2022-10-17T11:45:46;2.58;;;2.30;;
54745;SDS011;40640;48.130;11.356;2022-10-17T11:49:54;4.55;;;2.80;;
54745;SDS011;40640;48.130;11.356;2022-10-17T11:54:23;4.60;;;2.70;;
54745;SDS011;40640;48.130;11.356;2022-10-17T11:58:32;6.15;;;2.55;;
54745;SDS011;40640;48.130;11.356;2022-10-17T12:02:44;3.80;;;2.83;;
54745;SDS011;40640;48.130;11.356;2022-10-17T12:06:57;3.97;;;2.45;;
54745;SDS011;40640;48.130;11.356;2022-10-17T12:11:10;3.85;;;1.98;;
54745;SDS011;40640;48.130;11.356;2022-10-17T12:15:27;4.18;;;1.90;;
54745;SDS011;40640;48.130;11.356;2022-10-17T12:19:33;3.45;;;1.90;;
54745;SDS011;40640;48.130;11.356;2022-10-17T12:23:42;4.38;;;2.10;;
54745;SDS011;40640;48.130;11.356;2022-10-17T12:28:01;2.95;;;1.88;;
54745;SDS011;40640;48.130;11.356;2022-10-17T12:32:13;2.50;;;1.90;;
54745;SDS011;40640;48.130;11.356;2022-10-17T12:40:51;1.75;;;1.65;;
54745;SDS011;40640;48.130;11.356;2022-10-17T12:44:58;1.70;;;1.45;;
54745;SDS011;40640;48.130;11.356;2022-10-17T12:49:13;2.67;;;1.40;;
54745;SDS011;40640;48.130;11.356;2022-10-17T12:53:23;2.90;;;1.60;;
54745;SDS011;40640;48.130;11.356;2022-10-17T12:57:34;8.45;;;2.05;;
54745;SDS011;40640;48.130;11.356;2022-10-17T13:01:42;1.88;;;1.63;;
54745;SDS011;40640;48.130;11.356;2022-10-17T13:05:49;3.63;;;1.52;;
54745;SDS011;40640;48.130;11.356;2022-10-17T13:09:55;3.45;;;1.50;;
54745;SDS011;40640;48.130;11.356;2022-10-17T13:13:59;5.70;;;1.52;;
54745;SDS011;40640;48.130;11.356;2022-10-17T13:18:03;3.95;;;1.60;;
54745;SDS011;40640;48.130;11.356;2022-10-17T13:22:09;5.72;;;1.70;;
54745;SDS011;40640;48.130;11.356;2022-10-17T13:26:18;1.70;;;1.60;;
54745;SDS011;40640;48.130;11.356;2022-10-17T13:30:24;4.63;;;1.50;;
54745;SDS011;40640;48.130;11.356;2022-10-17T13:34:32;1.48;;;1.38;;
54745;SDS011;40640;48.130;11.356;2022-10-17T13:38:35;2.25;;;1.45;;
54745;SDS011;40640;48.130;11.356;2022-10-17T13:42:44;10.85;;;1.75;;
54745;SDS011;40640;48.130;11.356;2022-10-17T13:46:47;4.57;;;1.53;;
54745;SDS011;40640;48.130;11.356;2022-10-17T13:50:51;2.00;;;1.52;;
54745;SDS011;40640;48.130;11.356;2022-10-17T13:55:06;5.28;;;1.50;;
54745;SDS011;40640;48.130;11.356;2022-10-17T13:59:20;6.93;;;1.95;;
54745;SDS011;40640;48.130;11.356;2022-10-17T14:03:24;1.90;;;1.52;;
54745;SDS011;40640;48.130;11.356;2022-10-17T14:07:49;2.47;;;1.83;;
54745;SDS011;40640;48.130;11.356;2022-10-17T14:12:13;4.10;;;1.48;;
54745;SDS011;40640;48.130;11.356;2022-10-17T14:16:18;5.15;;;3.03;;
54745;SDS011;40640;48.130;11.356;2022-10-17T14:20:21;3.67;;;1.80;;
54745;SDS011;40640;48.130;11.356;2022-10-17T14:24:46;5.85;;;1.65;;
54745;SDS011;40640;48.130;11.356;2022-10-17T14:28:50;1.73;;;1.60;;
54745;SDS011;40640;48.130;11.356;2022-10-17T14:33:10;6.15;;;2.20;;
54745;SDS011;40640;48.130;11.356;2022-10-17T14:37:18;1.65;;;1.48;;
54745;SDS011;40640;48.130;11.356;2022-10-17T14:41:31;4.50;;;1.70;;
54745;SDS011;40640;48.130;11.356;2022-10-17T14:45:44;2.72;;;1.75;;
54745;SDS011;40640;48.130;11.356;2022-10-17T14:49:49;6.72;;;1.88;;
54745;SDS011;40640;48.130;11.356;2022-10-17T14:54:04;2.10;;;1.90;;
54745;SDS011;40640;48.130;11.356;2022-10-17T14:58:22;2.88;;;1.60;;
54745;SDS011;40640;48.130;11.356;2022-10-17T15:02:28;6.57;;;1.60;;
54745;SDS011;40640;48.130;11.356;2022-10-17T15:06:33;4.32;;;1.70;;
54745;SDS011;40640;48.130;11.356;2022-10-17T15:10:36;5.93;;;1.80;;
54745;SDS011;40640;48.130;11.356;2022-10-17T15:14:42;3.50;;;1.63;;
54745;SDS011;40640;48.130;11.356;2022-10-17T15:18:45;2.20;;;1.60;;
54745;SDS011;40640;48.130;11.356;2022-10-17T15:22:49;3.13;;;1.60;;
54745;SDS011;40640;48.130;11.356;2022-10-17T15:26:52;2.53;;;2.15;;
54745;SDS011;40640;48.130;11.356;2022-10-17T15:31:00;4.47;;;2.10;;
54745;SDS011;40640;48.130;11.356;2022-10-17T15:35:02;2.50;;;1.70;;
54745;SDS011;40640;48.130;11.356;2022-10-17T15:39:08;2.67;;;1.98;;
54745;SDS011;40640;48.130;11.356;2022-10-17T15:43:11;6.57;;;2.40;;
54745;SDS011;40640;48.130;11.356;2022-10-17T15:47:21;10.38;;;2.30;;
54745;SDS011;40640;48.130;11.356;2022-10-17T15:51:26;4.60;;;2.60;;
54745;SDS011;40640;48.130;11.356;2022-10-17T15:55:30;11.02;;;3.60;;
54745;SDS011;40640;48.130;11.356;2022-10-17T15:59:33;12.32;;;5.00;;
54745;SDS011;40640;48.130;11.356;2022-10-17T16:03:36;6.88;;;3.08;;
54745;SDS011;40640;48.130;11.356;2022-10-17T16:07:39;6.82;;;2.65;;
54745;SDS011;40640;48.130;11.356;2022-10-17T16:11:43;4.85;;;2.72;;
54745;SDS011;40640;48.130;11.356;2022-10-17T16:15:46;10.65;;;4.97;;
54745;SDS011;40640;48.130;11.356;2022-10-17T16:19:49;6.13;;;2.67;;
54745;SDS011;40640;48.130;11.356;2022-10-17T16:23:52;10.48;;;2.75;;
54745;SDS011;40640;48.130;11.356;2022-10-17T16:27:56;9.70;;;2.90;;
54745;SDS011;40640;48.130;11.356;2022-10-17T16:32:00;14.77;;;3.70;;
54745;SDS011;40640;48.130;11.356;2022-10-17T16:36:03;6.40;;;3.20;;
54745;SDS011;40640;48.130;11.356;2022-10-17T16:40:07;11.98;;;3.20;;
54745;SDS011;40640;48.130;11.356;2022-10-17T16:44:12;12.48;;;3.60;;
54745;SDS011;40640;48.130;11.356;2022-10-17T16:48:16;8.68;;;4.50;;
54745;SDS011;40640;48.130;11.356;2022-10-17T16:52:19;9.73;;;4.22;;
54745;SDS011;40640;48.130;11.356;2022-10-17T16:56:22;6.00;;;4.00;;
54745;SDS011;40640;48.130;11.356;2022-10-17T17:00:31;16.83;;;6.25;;
54745;SDS011;40640;48.130;11.356;2022-10-17T17:04:34;11.90;;;4.40;;
54745;SDS011;40640;48.130;11.356;2022-10-17T17:08:36;9.50;;;4.82;;
54745;SDS011;40640;48.130;11.356;2022-10-17T17:12:39;12.45;;;5.00;;
54745;SDS011;40640;48.130;11.356;2022-10-17T17:16:43;11.25;;;4.85;;
54745;SDS011;40640;48.130;11.356;2022-10-17T17:20:46;18.38;;;4.45;;
54745;SDS011;40640;48.130;11.356;2022-10-17T17:24:49;9.35;;;3.40;;
54745;SDS011;40640;48.130;11.356;2022-10-17T17:28:52;16.33;;;3.47;;
54745;SDS011;40640;48.130;11.356;2022-10-17T17:32:56;8.13;;;3.97;;
54745;SDS011;40640;48.130;11.356;2022-10-17T17:37:00;19.73;;;5.78;;
54745;SDS011;40640;48.130;11.356;2022-10-17T17:41:03;13.20;;;5.05;;
54745;SDS011;40640;48.130;11.356;2022-10-17T17:45:06;12.30;;;6.38;;
54745;SDS011;40640;48.130;11.356;2022-10-17T17:49:11;14.00;;;8.25;;
54745;SDS011;40640;48.130;11.356;2022-10-17T17:53:14;11.02;;;5.13;;
54745;SDS011;40640;48.130;11.356;2022-10-17T17:57:18;11.48;;;5.90;;
54745;SDS011;40640;48.130;11.356;2022-10-17T18:01:21;16.83;;;6.50;;
54745;SDS011;40640;48.130;11.356;2022-10-17T18:05:28;9.88;;;5.15;;
54745;SDS011;40640;48.130;11.356;2022-10-17T18:09:30;20.60;;;6.25;;
54745;SDS011;40640;48.130;11.356;2022-10-17T18:13:33;10.30;;;5.93;;
54745;SDS011;40640;48.130;11.356;2022-10-17T18:17:36;8.82;;;5.60;;
54745;SDS011;40640;48.130;11.356;2022-10-17T18:21:40;8.85;;;4.90;;
54745;SDS011;40640;48.130;11.356;2022-10-17T18:25:51;18.95;;;5.43;;
54745;SDS011;40640;48.130;11.356;2022-10-17T18:29:54;12.68;;;5.45;;
54745;SDS011;40640;48.130;11.356;2022-10-17T18:33:57;14.30;;;4.57;;
54745;SDS011;40640;48.130;11.356;2022-10-17T18:38:02;27.92;;;6.57;;
54745;SDS011;40640;48.130;11.356;2022-10-17T18:42:05;9.85;;;4.03;;
54745;SDS011;40640;48.130;11.356;2022-10-17T18:46:09;6.88;;;3.45;;
54745;SDS011;40640;48.130;11.356;2022-10-17T18:50:15;6.35;;;3.70;;
54745;SDS011;40640;48.130;11.356;2022-10-17T18:54:19;13.88;;;5.35;;
54745;SDS011;40640;48.130;11.356;2022-10-17T18:58:24;12.85;;;6.65;;
54745;SDS011;40640;48.130;11.356;2022-10-17T19:02:27;30.80;;;15.82;;
54745;SDS011;40640;48.130;11.356;2022-10-17T19:06:37;10.10;;;6.15;;
54745;SDS011;40640;48.130;11.356;2022-10-17T19:10:42;12.27;;;3.50;;
54745;SDS011;40640;48.130;11.356;2022-10-17T19:14:45;14.57;;;4.00;;
54745;SDS011;40640;48.130;11.356;2022-10-17T19:18:48;4.95;;;3.38;;
54745;SDS011;40640;48.130;11.356;2022-10-17T19:22:51;17.02;;;7.75;;
54745;SDS011;40640;48.130;11.356;2022-10-17T19:27:00;11.90;;;4.10;;
54745;SDS011;40640;48.130;11.356;2022-10-17T19:31:05;11.10;;;4.25;;
54745;SDS011;40640;48.130;11.356;2022-10-17T19:35:08;10.27;;;4.18;;
54745;SDS011;40640;48.130;11.356;2022-10-17T19:39:13;8.90;;;3.78;;
54745;SDS011;40640;48.130;11.356;2022-10-17T19:43:20;5.57;;;3.63;;
54745;SDS011;40640;48.130;11.356;2022-10-17T19:47:23;7.55;;;4.07;;
54745;SDS011;40640;48.130;11.356;2022-10-17T19:51:26;23.58;;;8.57;;
54745;SDS011;40640;48.130;11.356;2022-10-17T19:55:30;22.80;;;10.00;;
54745;SDS011;40640;48.130;11.356;2022-10-17T19:59:35;5.53;;;3.35;;
54745;SDS011;40640;48.130;11.356;2022-10-17T20:03:38;12.32;;;3.83;;
54745;SDS011;40640;48.130;11.356;2022-10-17T20:07:40;11.10;;;5.75;;
54745;SDS011;40640;48.130;11.356;2022-10-17T20:11:43;9.65;;;3.90;;
54745;SDS011;40640;48.130;11.356;2022-10-17T20:15:53;9.10;;;4.40;;
54745;SDS011;40640;48.130;11.356;2022-10-17T20:19:57;10.85;;;4.50;;
54745;SDS011;40640;48.130;11.356;2022-10-17T20:24:04;11.23;;;4.30;;
54745;SDS011;40640;48.130;11.356;2022-10-17T20:28:09;13.23;;;5.18;;
54745;SDS011;40640;48.130;11.356;2022-10-17T20:32:13;5.60;;;3.95;;
54745;SDS011;40640;48.130;11.356;2022-10-17T20:36:16;5.35;;;3.85;;
54745;SDS011;40640;48.130;11.356;2022-10-17T20:40:23;8.00;;;4.30;;
54745;SDS011;40640;48.130;11.356;2022-10-17T20:44:41;8.73;;;3.85;;
54745;SDS011;40640;48.130;11.356;2022-10-17T20:48:49;7.72;;;3.50;;
54745;SDS011;40640;48.130;11.356;2022-10-17T20:52:52;13.25;;;4.03;;
54745;SDS011;40640;48.130;11.356;2022-10-17T20:57:15;8.68;;;3.28;;
54745;SDS011;40640;48.130;11.356;2022-10-17T21:01:17;8.05;;;3.42;;
54745;SDS011;40640;48.130;11.356;2022-10-17T21:05:22;9.65;;;4.03;;
54745;SDS011;40640;48.130;11.356;2022-10-17T21:09:25;10.00;;;5.32;;
54745;SDS011;40640;48.130;11.356;2022-10-17T21:13:27;6.15;;;3.65;;
54745;SDS011;40640;48.130;11.356;2022-10-17T21:17:30;4.55;;;3.38;;
54745;SDS011;40640;48.130;11.356;2022-10-17T21:21:35;9.18;;;3.17;;
54745;SDS011;40640;48.130;11.356;2022-10-17T21:25:39;11.30;;;3.93;;
54745;SDS011;40640;48.130;11.356;2022-10-17T21:29:41;9.07;;;3.25;;
54745;SDS011;40640;48.130;11.356;2022-10-17T21:33:45;9.90;;;3.20;;
54745;SDS011;40640;48.130;11.356;2022-10-17T21:37:50;7.50;;;3.70;;
54745;SDS011;40640;48.130;11.356;2022-10-17T21:41:53;5.03;;;3.22;;
54745;SDS011;40640;48.130;11.356;2022-10-17T21:45:59;6.00;;;3.58;;
54745;SDS011;40640;48.130;11.356;2022-10-17T21:50:02;5.90;;;3.55;;
54745;SDS011;40640;48.130;11.356;2022-10-17T21:54:07;9.02;;;3.13;;
54745;SDS011;40640;48.130;11.356;2022-10-17T21:58:10;9.38;;;3.28;;
54745;SDS011;40640;48.130;11.356;2022-10-17T22:02:12;8.52;;;3.50;;
54745;SDS011;40640;48.130;11.356;2022-10-17T22:06:17;8.38;;;3.13;;
54745;SDS011;40640;48.130;11.356;2022-10-17T22:10:43;6.88;;;3.35;;
54745;SDS011;40640;48.130;11.356;2022-10-17T22:14:46;5.97;;;3.28;;
54745;SDS011;40640;48.130;11.356;2022-10-17T22:18:49;12.32;;;3.38;;
54745;SDS011;40640;48.130;11.356;2022-10-17T22:22:51;8.50;;;3.83;;
54745;SDS011;40640;48.130;11.356;2022-10-17T22:26:56;16.67;;;5.13;;
54745;SDS011;40640;48.130;11.356;2022-10-17T22:30:58;8.70;;;3.10;;
54745;SDS011;40640;48.130;11.356;2022-10-17T22:35:01;8.38;;;3.33;;
54745;SDS011;40640;48.130;11.356;2022-10-17T22:39:04;9.55;;;3.45;;
54745;SDS011;40640;48.130;11.356;2022-10-17T22:43:09;13.38;;;3.00;;
54745;SDS011;40640;48.130;11.356;2022-10-17T22:47:11;8.68;;;3.20;;
54745;SDS011;40640;48.130;11.356;2022-10-17T22:51:14;6.25;;;3.20;;
54745;SDS011;40640;48.130;11.356;2022-10-17T22:55:19;8.75;;;3.10;;
54745;SDS011;40640;48.130;11.356;2022-10-17T22:59:23;8.95;;;3.50;;
54745;SDS011;40640;48.130;11.356;2022-10-17T23:03:26;10.07;;;3.10;;
54745;SDS011;40640;48.130;11.356;2022-10-17T23:07:30;4.75;;;3.20;;
54745;SDS011;40640;48.130;11.356;2022-10-17T23:11:33;5.20;;;2.90;;
54745;SDS011;40640;48.130;11.356;2022-10-17T23:15:37;6.80;;;3.10;;
54745;SDS011;40640;48.130;11.356;2022-10-17T23:19:41;5.38;;;3.10;;
54745;SDS011;40640;48.130;11.356;2022-10-17T23:23:43;5.40;;;3.05;;
54745;SDS011;40640;48.130;11.356;2022-10-17T23:27:46;5.03;;;2.60;;
54745;SDS011;40640;48.130;11.356;2022-10-17T23:31:53;3.85;;;2.58;;
54745;SDS011;40640;48.130;11.356;2022-10-17T23:35:56;4.60;;;3.38;;
54745;SDS011;40640;48.130;11.356;2022-10-17T23:39:59;5.95;;;2.58;;
54745;SDS011;40640;48.130;11.356;2022-10-17T23:44:02;7.05;;;2.80;;
54745;SDS011;40640;48.130;11.356;2022-10-17T23:48:07;8.73;;;3.10;;
54745;SDS011;40640;48.130;11.356;2022-10-17T23:52:09;5.35;;;3.40;;
54745;SDS011;40640;48.130;11.356;2022-10-17T23:56:12;7.40;;;3.17;;
